Terminal Aerodrome Forecast
Issued by NWS

Home | Current Version | Previous Version | Text Only | Print | Product List | Glossary On
Versions: 1 2 3 4 5 6 7 8 9 10 11 12 13 14 15 16
335
FTUS43 KIND 271121
TAFHUF
TAF
KHUF 271121Z 2712/2812 13005KT P6SM OVC050
     FM280600 14008KT P6SM -SHRA VCTS BKN070CB
     FM280700 15009KT 6SM -SHRA BR VCTS BKN040CB
     FM280800 16009KT 5SM -SHRA BR VCTS BKN035CB
     FM280900 17011KT 5SM -SHRA BR VCTS BKN015CB=

USA.gov is the U.S. government's official web portal to all federal, state and local government web resources and services.